Time;durP1;ratioP1;P1;durP2;ratioP2;P2;SDS_P1;SDS_P2;PMS_P1;PMS_P2;Temp;Humidity;BMP_temperature;BMP_pressure;BME280_temperature;BME280_humidity;BME280_pressure;Samples;Min_cycle;Max_cycle;Signal;HPM_P1;HPM_P2
2023/02/02 00:01:24;;;;;;;17.52;3.30;;;5.50;99.90;;;;;;5111729;28;20043;-74
2023/02/02 00:03:50;;;;;;;23.80;4.38;;;5.50;99.90;;;;;;5111747;28;20522;-74
2023/02/02 00:06:21;;;;;;;20.48;6.45;;;5.40;99.90;;;;;;5112018;28;20075;-74
2023/02/02 00:08:46;;;;;;;21.55;4.38;;;5.50;99.90;;;;;;5112464;28;20591;-74
2023/02/02 00:11:13;;;;;;;22.85;3.70;;;5.40;99.90;;;;;;5111630;28;20040;-74
2023/02/02 00:13:39;;;;;;;17.95;3.88;;;5.30;99.90;;;;;;5111509;28;20047;-74
2023/02/02 00:16:27;;;;;;;38.58;5.75;;;5.30;99.90;;;;;;5111524;28;20553;-75
2023/02/02 00:19:03;;;;;;;25.63;6.40;;;5.30;99.90;;;;;;5111245;28;20405;-74
2023/02/02 00:21:29;;;;;;;22.10;4.40;;;5.20;99.90;;;;;;5111480;28;20528;-74
2023/02/02 00:23:55;;;;;;;14.82;4.80;;;5.10;99.90;;;;;;5111629;28;20075;-75
2023/02/02 00:26:21;;;;;;;24.95;4.63;;;5.10;99.90;;;;;;5112327;28;20043;-74
2023/02/02 00:28:47;;;;;;;18.45;4.47;;;5.20;99.90;;;;;;5111086;28;20517;-74
2023/02/02 00:31:12;;;;;;;16.38;5.10;;;5.10;99.90;;;;;;5112637;28;20051;-74
2023/02/02 00:33:38;;;;;;;24.70;4.18;;;5.10;99.90;;;;;;5111246;28;20036;-75
2023/02/02 00:36:04;;;;;;;21.90;4.10;;;5.10;99.90;;;;;;5111257;28;20054;-74
2023/02/02 00:38:31;;;;;;;20.92;4.10;;;5.10;99.90;;;;;;5110631;28;20035;-76
2023/02/02 00:40:56;;;;;;;23.05;5.07;;;5.20;99.90;;;;;;5111000;28;20047;-74
2023/02/02 00:43:22;;;;;;;30.23;4.70;;;5.20;99.90;;;;;;5112547;28;20486;-74
2023/02/02 00:45:48;;;;;;;27.67;5.57;;;5.10;99.90;;;;;;5111105;28;20115;-75
2023/02/02 00:48:14;;;;;;;22.85;4.05;;;5.10;99.90;;;;;;5111034;28;20080;-74
2023/02/02 00:50:39;;;;;;;18.85;3.85;;;5.20;99.90;;;;;;5110988;28;20039;-75
2023/02/02 00:53:05;;;;;;;24.52;4.63;;;5.20;99.90;;;;;;5111244;28;20509;-74
2023/02/02 00:55:30;;;;;;;26.88;5.20;;;5.20;99.90;;;;;;5110763;28;20036;-74
2023/02/02 00:57:56;;;;;;;24.33;4.43;;;5.20;99.90;;;;;;5112335;28;20085;-75
2023/02/02 01:00:24;;;;;;;22.13;4.70;;;5.10;99.90;;;;;;5110776;28;20042;-75
2023/02/02 01:02:51;;;;;;;32.15;4.50;;;5.10;99.90;;;;;;5111197;28;20031;-74
2023/02/02 01:05:17;;;;;;;27.23;5.05;;;5.30;99.90;;;;;;5110611;28;20067;-74
2023/02/02 01:07:43;;;;;;;30.58;5.38;;;5.10;99.90;;;;;;5093900;28;20040;-74
2023/02/02 01:10:13;;;;;;;18.70;4.97;;;5.20;99.90;;;;;;5110268;28;20040;-74
2023/02/02 01:12:39;;;;;;;26.75;5.85;;;5.40;99.90;;;;;;5112256;28;20055;-74
2023/02/02 01:15:06;;;;;;;26.13;4.57;;;5.30;99.90;;;;;;5111053;28;20035;-74
2023/02/02 01:17:31;;;;;;;31.77;5.80;;;5.20;99.90;;;;;;5110929;28;20054;-74
2023/02/02 01:19:57;;;;;;;24.27;5.45;;;5.40;99.90;;;;;;5110355;28;20043;-74
2023/02/02 01:22:22;;;;;;;27.52;4.85;;;5.40;99.90;;;;;;5111951;28;20054;-75
2023/02/02 01:24:48;;;;;;;24.98;5.30;;;5.30;99.90;;;;;;5111958;28;20521;-74
2023/02/02 01:27:13;;;;;;;31.58;6.18;;;5.50;99.90;;;;;;5110634;28;20039;-74
2023/02/02 01:29:39;;;;;;;28.27;5.45;;;5.40;99.90;;;;;;5111699;28;20039;-74
2023/02/02 01:32:05;;;;;;;16.05;4.10;;;5.40;99.90;;;;;;5110621;28;20485;-74
2023/02/02 01:34:30;;;;;;;22.73;5.63;;;5.40;99.90;;;;;;5111953;28;20035;-74
2023/02/02 01:36:56;;;;;;;22.30;5.20;;;5.60;99.90;;;;;;5111907;28;20045;-74
2023/02/02 01:39:21;;;;;;;25.73;4.35;;;5.70;99.90;;;;;;5110190;28;20048;-75
2023/02/02 01:41:47;;;;;;;33.67;6.20;;;5.50;99.90;;;;;;5110449;28;20039;-75
2023/02/02 01:44:50;;;;;;;21.98;5.22;;;5.60;99.90;;;;;;5110779;28;20043;-74
2023/02/02 01:47:17;;;;;;;27.92;5.15;;;5.70;99.90;;;;;;5110695;28;20035;-74
2023/02/02 01:49:42;;;;;;;32.95;4.70;;;5.50;99.90;;;;;;5111271;28;20050;-74
2023/02/02 01:52:10;;;;;;;27.17;5.05;;;5.60;99.90;;;;;;5110453;28;20122;-74
2023/02/02 01:54:47;;;;;;;31.52;4.65;;;5.70;99.90;;;;;;5110399;28;20457;-74
2023/02/02 01:57:15;;;;;;;23.98;5.10;;;5.60;99.90;;;;;;5110409;28;20096;-74
2023/02/02 01:59:43;;;;;;;27.83;5.75;;;5.80;99.90;;;;;;5109916;28;20040;-74
2023/02/02 02:02:09;;;;;;;29.52;5.85;;;5.70;99.90;;;;;;5110354;28;20067;-74
2023/02/02 02:04:35;;;;;;;20.85;4.82;;;5.80;99.90;;;;;;5110382;28;20123;-74
2023/02/02 02:07:03;;;;;;;40.70;6.50;;;5.70;99.90;;;;;;5112806;28;20088;-74
2023/02/02 02:09:28;;;;;;;17.38;4.47;;;5.90;99.90;;;;;;5114885;28;20047;-74
2023/02/02 02:11:54;;;;;;;27.33;4.72;;;5.90;99.90;;;;;;5113874;28;20039;-74
2023/02/02 02:17:32;;;;;;;29.33;5.75;;;5.90;99.90;;;;;;5113931;28;20696;-74
2023/02/02 02:27:10;;;;;;;19.92;4.40;;;5.80;99.90;;;;;;5115038;28;20050;-74
2023/02/02 02:29:58;;;;;;;20.77;5.57;;;5.60;99.90;;;;;;5113413;28;20038;-74
2023/02/02 02:32:51;;;;;;;18.02;4.43;;;5.50;99.90;;;;;;5113643;28;20040;-74
2023/02/02 02:35:42;;;;;;;23.80;5.40;;;5.70;99.90;;;;;;5113783;28;20066;-75
2023/02/02 02:38:14;;;;;;;26.75;5.85;;;5.50;99.90;;;;;;5109206;28;20047;-75
2023/02/02 02:40:54;;;;;;;25.77;5.15;;;5.60;99.90;;;;;;5113037;28;20039;-74
2023/02/02 02:43:30;;;;;;;25.48;4.80;;;5.50;99.90;;;;;;5114765;28;20042;-74
2023/02/02 02:45:56;;;;;;;24.35;4.68;;;5.50;99.90;;;;;;5113317;28;20075;-75
2023/02/02 02:48:22;;;;;;;22.70;4.38;;;5.70;99.90;;;;;;5113307;28;20074;-75
2023/02/02 02:50:47;;;;;;;23.35;5.65;;;5.60;99.90;;;;;;5114446;28;20486;-74
2023/02/02 02:53:17;;;;;;;30.40;4.47;;;5.50;99.90;;;;;;5113205;28;20043;-74
2023/02/02 02:56:02;;;;;;;21.05;4.47;;;5.70;99.90;;;;;;5113024;28;20557;-75
2023/02/02 02:58:58;;;;;;;19.05;3.90;;;5.70;99.90;;;;;;5112641;28;20044;-75
2023/02/02 03:01:38;;;;;;;24.17;4.47;;;5.70;99.90;;;;;;5113047;28;20047;-74
2023/02/02 03:04:21;;;;;;;24.83;3.92;;;5.70;99.90;;;;;;5114331;28;20039;-74
2023/02/02 03:06:58;;;;;;;20.48;4.43;;;5.60;99.90;;;;;;5112882;28;20122;-74
2023/02/02 03:09:29;;;;;;;27.30;5.10;;;5.60;99.90;;;;;;5113711;28;20122;-74
2023/02/02 03:11:55;;;;;;;24.10;4.72;;;5.80;99.90;;;;;;5112847;28;20043;-74
2023/02/02 03:14:21;;;;;;;31.27;6.68;;;5.80;99.90;;;;;;5112753;28;20043;-75
2023/02/02 03:16:50;;;;;;;19.50;4.15;;;5.90;99.90;;;;;;5112694;28;20089;-75
2023/02/02 03:19:16;;;;;;;31.65;4.35;;;5.90;99.90;;;;;;5112125;28;20031;-75
2023/02/02 03:21:41;;;;;;;20.27;4.38;;;5.80;99.90;;;;;;5112618;28;20036;-74
2023/02/02 03:24:07;;;;;;;18.50;4.63;;;5.80;99.90;;;;;;5113829;28;20099;-74
2023/02/02 03:26:33;;;;;;;23.90;4.65;;;6.10;99.90;;;;;;5112482;28;20043;-74
2023/02/02 03:28:59;;;;;;;27.50;4.80;;;5.90;99.90;;;;;;5112067;28;20084;-74
2023/02/02 03:31:27;;;;;;;25.85;5.55;;;6.10;99.90;;;;;;5112432;28;20039;-74
2023/02/02 03:33:53;;;;;;;26.48;4.78;;;5.90;99.90;;;;;;5112314;28;20054;-74
2023/02/02 03:36:18;;;;;;;17.75;5.63;;;6.10;99.90;;;;;;5112330;28;20040;-74
2023/02/02 03:38:44;;;;;;;23.45;4.38;;;6.20;99.90;;;;;;5111778;28;20054;-75
2023/02/02 03:41:09;;;;;;;20.33;4.30;;;6.00;99.90;;;;;;5112227;28;20120;-74
2023/02/02 03:43:35;;;;;;;20.40;4.25;;;6.10;99.90;;;;;;5112152;28;20449;-75
2023/02/02 03:46:06;;;;;;;19.08;3.85;;;6.30;99.90;;;;;;5112091;28;20402;-74
2023/02/02 03:48:35;;;;;;;23.40;5.13;;;6.20;99.90;;;;;;5111753;28;20047;-74
2023/02/02 03:51:05;;;;;;;24.75;4.35;;;6.40;99.90;;;;;;5112280;28;20447;-74
2023/02/02 03:53:30;;;;;;;21.58;4.20;;;6.40;99.90;;;;;;5111961;28;20035;-75
2023/02/02 03:55:56;;;;;;;18.83;4.28;;;6.30;99.90;;;;;;5111987;28;20055;-75
2023/02/02 03:58:21;;;;;;;19.95;4.47;;;6.50;99.90;;;;;;5111796;28;20553;-74
2023/02/02 04:00:47;;;;;;;20.60;3.67;;;6.40;99.90;;;;;;5111476;28;20119;-74
2023/02/02 04:03:12;;;;;;;18.25;4.28;;;6.40;99.90;;;;;;5111778;28;20103;-75
2023/02/02 04:05:38;;;;;;;19.50;3.50;;;6.40;99.90;;;;;;5111771;28;20071;-75
2023/02/02 04:08:04;;;;;;;14.20;3.00;;;6.40;99.90;;;;;;5112843;28;20146;-75
2023/02/02 04:10:29;;;;;;;16.02;2.80;;;6.50;99.90;;;;;;5111402;28;20514;-74
2023/02/02 04:12:55;;;;;;;16.13;2.13;;;6.40;99.90;;;;;;5111631;28;20040;-75
2023/02/02 04:15:20;;;;;;;13.43;2.63;;;6.40;99.90;;;;;;5111515;28;20027;-75
2023/02/02 04:17:46;;;;;;;10.75;2.78;;;6.60;99.90;;;;;;5113008;28;20035;-74
2023/02/02 04:20:11;;;;;;;8.25;1.88;;;6.40;99.90;;;;;;5111084;28;20418;-75
2023/02/02 04:22:37;;;;;;;7.38;1.98;;;6.40;99.90;;;;;;5112821;28;20447;-74
2023/02/02 04:25:02;;;;;;;5.47;1.85;;;6.30;99.90;;;;;;5111459;28;20035;-74
2023/02/02 04:27:31;;;;;;;6.40;1.20;;;6.40;99.90;;;;;;5112687;28;20058;-74
2023/02/02 04:29:56;;;;;;;4.75;1.45;;;6.40;99.90;;;;;;5110505;28;20050;-74
2023/02/02 04:32:22;;;;;;;9.38;1.77;;;6.30;99.90;;;;;;5111258;28;20039;-74
2023/02/02 04:34:47;;;;;;;2.40;1.10;;;6.30;99.90;;;;;;5111419;28;20448;-74
2023/02/02 04:37:13;;;;;;;11.20;1.30;;;6.20;99.90;;;;;;5112492;28;20553;-75
2023/02/02 04:39:39;;;;;;;3.88;1.30;;;6.10;99.90;;;;;;5110693;28;20502;-74
2023/02/02 04:42:04;;;;;;;8.07;1.10;;;6.20;99.90;;;;;;5112439;28;20126;-74
2023/02/02 04:44:30;;;;;;;2.05;0.77;;;6.10;99.90;;;;;;5112320;28;20039;-74
2023/02/02 04:46:55;;;;;;;2.90;0.95;;;6.00;99.90;;;;;;5111022;28;20532;-75
2023/02/02 04:49:21;;;;;;;2.60;0.90;;;6.00;99.90;;;;;;5110939;28;20075;-74
2023/02/02 04:51:47;;;;;;;3.65;1.20;;;6.10;99.90;;;;;;5112278;28;20075;-74
2023/02/02 04:54:12;;;;;;;8.15;1.02;;;6.10;99.90;;;;;;5110997;28;20057;-74
2023/02/02 04:56:38;;;;;;;6.13;1.27;;;6.00;99.90;;;;;;5110952;28;20097;-74
2023/02/02 04:59:03;;;;;;;8.45;1.73;;;6.00;99.90;;;;;;5110612;28;20472;-76
2023/02/02 05:01:29;;;;;;;4.78;1.00;;;6.00;99.90;;;;;;5111127;28;20039;-74
2023/02/02 05:03:56;;;;;;;4.85;1.38;;;6.00;99.90;;;;;;5110912;28;20089;-74
2023/02/02 05:06:21;;;;;;;5.72;2.65;;;6.00;99.90;;;;;;5110863;28;20698;-74
2023/02/02 05:08:47;;;;;;;6.45;1.20;;;6.10;99.90;;;;;;5111619;28;20043;-74
2023/02/02 05:11:19;;;;;;;7.47;1.27;;;6.10;99.90;;;;;;5110832;28;20486;-74
2023/02/02 05:13:49;;;;;;;7.13;2.05;;;6.10;99.90;;;;;;5110719;28;20083;-74
2023/02/02 05:16:15;;;;;;;7.20;1.52;;;6.00;99.90;;;;;;5110763;28;20521;-74
2023/02/02 05:18:42;;;;;;;4.38;1.27;;;5.90;99.90;;;;;;5110305;28;20123;-74
2023/02/02 05:21:08;;;;;;;3.90;1.00;;;5.80;99.90;;;;;;5111935;28;20040;-74
2023/02/02 05:23:33;;;;;;;4.22;0.80;;;6.00;99.90;;;;;;5110619;28;20035;-74
2023/02/02 05:25:59;;;;;;;4.07;1.52;;;5.80;99.90;;;;;;5110544;28;20084;-74
2023/02/02 05:28:25;;;;;;;5.18;1.33;;;6.00;99.90;;;;;;5110606;28;20170;-74
2023/02/02 05:30:51;;;;;;;7.00;1.50;;;5.90;99.90;;;;;;5111995;28;20532;-74
2023/02/02 05:33:18;;;;;;;7.22;1.35;;;5.80;99.90;;;;;;5110780;28;20035;-75
2023/02/02 05:35:45;;;;;;;8.20;1.67;;;5.90;99.90;;;;;;5110548;28;20145;-74
2023/02/02 05:38:10;;;;;;;8.70;1.33;;;5.90;99.90;;;;;;5110504;28;20046;-75
2023/02/02 05:40:36;;;;;;;6.38;1.33;;;5.70;99.90;;;;;;5110489;28;20040;-74
2023/02/02 05:43:01;;;;;;;4.38;1.42;;;5.70;99.90;;;;;;5114746;28;20040;-74
2023/02/02 05:45:27;;;;;;;5.47;1.23;;;5.70;99.90;;;;;;5114743;28;20130;-74
2023/02/02 05:47:54;;;;;;;4.93;1.27;;;5.90;99.90;;;;;;5114706;28;20486;-74
2023/02/02 05:50:20;;;;;;;5.13;0.90;;;5.80;99.90;;;;;;5113856;28;20501;-74
2023/02/02 05:52:46;;;;;;;7.57;1.40;;;5.90;99.90;;;;;;5114320;28;20122;-74
2023/02/02 05:55:12;;;;;;;5.60;1.63;;;5.70;99.90;;;;;;5114336;28;20119;-74
2023/02/02 05:57:37;;;;;;;7.18;1.38;;;5.90;99.90;;;;;;5115419;28;20114;-74
2023/02/02 06:00:04;;;;;;;5.78;1.75;;;5.70;99.90;;;;;;5115264;28;20269;-74
2023/02/02 06:02:29;;;;;;;5.18;1.15;;;5.90;99.90;;;;;;5114168;28;20127;-74
2023/02/02 06:04:55;;;;;;;4.28;1.38;;;5.80;99.90;;;;;;5115464;28;20118;-75
2023/02/02 06:07:20;;;;;;;5.75;1.30;;;5.80;99.90;;;;;;5114059;28;20118;-75
2023/02/02 06:09:46;;;;;;;11.10;1.85;;;5.80;99.90;;;;;;5113603;28;20126;-75
2023/02/02 06:12:11;;;;;;;5.30;1.20;;;5.90;99.90;;;;;;5113893;28;20036;-74
2023/02/02 06:14:37;;;;;;;5.90;1.35;;;5.70;99.90;;;;;;5114252;28;20043;-74
2023/02/02 06:17:03;;;;;;;4.82;0.80;;;5.80;99.90;;;;;;5113955;28;20035;-74
2023/02/02 06:19:28;;;;;;;5.13;1.20;;;5.80;99.90;;;;;;5113341;28;20095;-74
2023/02/02 06:21:54;;;;;;;3.67;1.20;;;5.80;99.90;;;;;;5114090;28;20413;-74
2023/02/02 06:24:19;;;;;;;3.42;1.02;;;5.70;99.90;;;;;;5114008;28;20028;-75
2023/02/02 06:26:45;;;;;;;9.75;1.38;;;5.90;99.90;;;;;;5114901;28;20035;-74
2023/02/02 06:29:12;;;;;;;7.40;1.17;;;5.80;99.90;;;;;;5113535;28;20035;-74
2023/02/02 06:31:37;;;;;;;11.50;1.15;;;5.70;99.90;;;;;;5115054;28;20169;-74
2023/02/02 06:34:03;;;;;;;5.25;1.20;;;5.60;99.90;;;;;;5113560;28;20161;-74
2023/02/02 06:36:28;;;;;;;6.65;1.63;;;5.80;99.90;;;;;;5114808;27;20044;-74
2023/02/02 06:38:55;;;;;;;5.18;1.35;;;5.80;99.90;;;;;;5113373;28;20061;-75
2023/02/02 06:41:21;;;;;;;4.88;1.05;;;5.80;99.90;;;;;;5113330;28;20394;-74
2023/02/02 06:43:48;;;;;;;7.53;1.02;;;5.80;99.90;;;;;;5113580;28;20036;-74
2023/02/02 06:46:14;;;;;;;2.92;1.10;;;5.70;99.90;;;;;;5113665;28;20435;-74
2023/02/02 06:48:40;;;;;;;8.77;1.83;;;5.80;99.90;;;;;;5112846;28;20047;-74
2023/02/02 06:51:06;;;;;;;9.35;1.88;;;5.80;99.90;;;;;;5113215;28;20512;-74
2023/02/02 06:53:32;;;;;;;5.13;1.30;;;5.80;99.90;;;;;;5112871;28;20097;-74
2023/02/02 06:55:59;;;;;;;4.45;0.90;;;5.80;99.90;;;;;;5113286;28;20043;-74
2023/02/02 06:58:25;;;;;;;5.85;1.27;;;5.90;99.90;;;;;;5114239;28;20405;-74
2023/02/02 07:00:52;;;;;;;4.57;1.17;;;5.70;99.90;;;;;;5096273;28;20402;-74
2023/02/02 07:03:20;;;;;;;7.55;1.38;;;5.90;99.90;;;;;;5114402;28;20416;-75
2023/02/02 07:05:46;;;;;;;8.80;1.48;;;5.80;99.90;;;;;;5112974;28;20494;-74
2023/02/02 07:08:11;;;;;;;7.78;1.63;;;5.60;99.90;;;;;;5114091;27;20063;-74
2023/02/02 07:10:37;;;;;;;8.25;1.55;;;5.70;99.90;;;;;;5113797;28;20442;-74
2023/02/02 07:13:05;;;;;;;7.28;1.75;;;5.70;99.90;;;;;;5113073;28;20032;-74
2023/02/02 07:15:31;;;;;;;14.23;1.70;;;5.90;99.90;;;;;;5112761;28;20036;-75
2023/02/02 07:17:57;;;;;;;8.65;1.80;;;5.70;99.90;;;;;;5112668;28;20027;-75
2023/02/02 07:20:22;;;;;;;6.60;1.48;;;5.70;99.90;;;;;;5112256;28;20050;-74
2023/02/02 07:22:48;;;;;;;6.35;1.40;;;5.70;99.90;;;;;;5112788;28;20506;-74
2023/02/02 07:25:13;;;;;;;7.72;2.05;;;5.70;99.90;;;;;;5112531;28;20489;-74
2023/02/02 07:27:39;;;;;;;8.57;1.83;;;5.90;99.90;;;;;;5112796;28;20505;-75
2023/02/02 07:30:05;;;;;;;8.73;1.92;;;5.80;99.90;;;;;;5111987;28;20046;-74
2023/02/02 07:32:30;;;;;;;6.60;1.48;;;5.80;99.90;;;;;;5112605;28;20043;-74
2023/02/02 07:34:56;;;;;;;5.75;1.52;;;5.80;99.90;;;;;;5112502;28;20076;-74
2023/02/02 07:37:21;;;;;;;8.35;2.28;;;5.70;99.90;;;;;;5113545;28;20516;-74
2023/02/02 07:39:47;;;;;;;7.90;1.58;;;5.70;99.90;;;;;;5111852;28;20528;-76
2023/02/02 07:42:13;;;;;;;6.22;1.10;;;5.80;99.90;;;;;;5112584;28;20138;-73
2023/02/02 07:44:38;;;;;;;5.20;1.98;;;5.90;99.90;;;;;;5095200;28;20050;-73
2023/02/02 07:47:04;;;;;;;5.70;1.27;;;5.80;99.90;;;;;;5112271;28;20043;-73
2023/02/02 07:49:30;;;;;;;5.35;1.40;;;5.70;99.90;;;;;;5111686;28;20040;-74
2023/02/02 07:51:55;;;;;;;9.13;1.45;;;5.80;99.90;;;;;;5113311;28;20199;-72
2023/02/02 07:54:21;;;;;;;7.65;1.48;;;5.90;99.90;;;;;;5113147;28;20028;-73
2023/02/02 07:56:47;;;;;;;5.22;1.45;;;5.90;99.90;;;;;;5113234;28;20050;-73
2023/02/02 07:59:12;;;;;;;8.02;1.33;;;5.90;99.90;;;;;;5111549;28;20039;-73
2023/02/02 08:01:38;;;;;;;3.38;1.35;;;5.90;99.90;;;;;;5111858;28;20042;-73
2023/02/02 08:04:03;;;;;;;7.72;1.33;;;5.80;99.90;;;;;;5111294;28;20046;-72
2023/02/02 08:06:32;;;;;;;4.28;1.60;;;5.80;99.90;;;;;;5113060;28;20486;-73
2023/02/02 08:08:59;;;;;;;4.93;1.02;;;6.00;99.90;;;;;;5111347;28;20047;-73
2023/02/02 08:11:26;;;;;;;2.72;1.25;;;6.00;99.90;;;;;;5113123;28;20127;-72
2023/02/02 08:13:54;;;;;;;4.65;1.35;;;5.80;99.90;;;;;;5110988;28;20040;-73
2023/02/02 08:16:21;;;;;;;4.88;1.63;;;6.00;99.90;;;;;;5098531;28;20032;-73
2023/02/02 08:18:46;;;;;;;5.45;1.73;;;6.00;99.90;;;;;;5090607;28;20491;-73
2023/02/02 08:21:12;;;;;;;7.32;1.33;;;6.00;99.90;;;;;;5091296;28;20044;-73
2023/02/02 08:23:39;;;;;;;4.78;1.30;;;6.10;99.90;;;;;;5091245;28;20032;-73
2023/02/02 08:26:09;;;;;;;11.02;2.10;;;6.10;99.90;;;;;;5090999;28;20075;-73
2023/02/02 08:28:35;;;;;;;3.78;1.73;;;6.00;99.90;;;;;;5091969;28;20076;-73
2023/02/02 08:31:09;;;;;;;4.70;1.70;;;5.90;99.90;;;;;;5090937;28;20090;-72
2023/02/02 08:33:35;;;;;;;6.78;1.25;;;6.00;99.90;;;;;;5094621;28;20556;-73
2023/02/02 08:36:01;;;;;;;3.92;1.15;;;6.00;99.90;;;;;;5101215;28;20165;-73
2023/02/02 08:38:27;;;;;;;4.78;1.35;;;5.90;99.90;;;;;;5099128;28;20043;-73
2023/02/02 08:40:53;;;;;;;3.90;1.38;;;6.10;99.90;;;;;;5099449;28;20032;-73
2023/02/02 08:43:19;;;;;;;7.38;1.05;;;6.20;99.90;;;;;;5092037;28;20495;-72
2023/02/02 08:45:44;;;;;;;4.72;1.52;;;6.00;99.90;;;;;;5091020;28;20074;-73
2023/02/02 08:48:11;;;;;;;3.25;1.20;;;6.10;99.90;;;;;;5090630;28;20487;-73
2023/02/02 08:50:37;;;;;;;2.67;0.75;;;6.20;99.90;;;;;;5090306;28;20070;-73
2023/02/02 08:53:02;;;;;;;4.10;1.60;;;6.00;99.90;;;;;;5092051;28;20036;-73
2023/02/02 08:55:28;;;;;;;6.30;1.25;;;6.30;99.90;;;;;;5090528;28;20046;-73
2023/02/02 08:57:53;;;;;;;4.32;1.20;;;6.20;99.90;;;;;;5090528;28;20043;-74
2023/02/02 09:00:19;;;;;;;3.38;1.27;;;6.10;99.90;;;;;;5090074;28;20143;-74
2023/02/02 09:02:49;;;;;;;2.83;1.08;;;6.10;99.90;;;;;;5091781;28;20513;-73
2023/02/02 09:05:14;;;;;;;4.03;1.27;;;6.30;99.90;;;;;;5090634;28;20515;-73
2023/02/02 09:07:40;;;;;;;5.03;1.50;;;6.30;99.90;;;;;;5090749;28;20149;-73
2023/02/02 09:10:06;;;;;;;4.15;1.40;;;6.20;99.90;;;;;;5089889;28;20044;-74
2023/02/02 09:12:31;;;;;;;2.35;1.17;;;6.30;99.90;;;;;;5090635;28;20075;-73
2023/02/02 09:14:57;;;;;;;8.63;1.55;;;6.20;99.90;;;;;;5092530;28;20056;-74
2023/02/02 09:17:23;;;;;;;3.85;1.50;;;6.20;99.90;;;;;;5094533;28;20055;-73
2023/02/02 09:19:48;;;;;;;5.25;1.30;;;6.30;99.90;;;;;;5093967;28;20491;-74
2023/02/02 09:22:14;;;;;;;4.05;1.15;;;6.40;99.90;;;;;;5094403;28;20127;-73
2023/02/02 09:24:39;;;;;;;4.40;1.38;;;6.40;99.90;;;;;;5094445;28;20044;-73
2023/02/02 09:27:05;;;;;;;5.72;1.30;;;6.50;99.90;;;;;;5095727;28;20036;-73
2023/02/02 09:29:31;;;;;;;3.03;1.17;;;6.60;99.90;;;;;;5093855;28;20040;-73
2023/02/02 09:31:56;;;;;;;5.78;1.40;;;6.50;99.90;;;;;;5094177;28;20067;-74
2023/02/02 09:34:21;;;;;;;4.38;1.25;;;6.50;99.90;;;;;;5094496;28;20513;-75
2023/02/02 09:36:47;;;;;;;3.95;1.45;;;6.40;99.90;;;;;;5094199;28;20044;-73
2023/02/02 09:39:14;;;;;;;5.88;1.27;;;6.60;99.90;;;;;;5095175;28;20040;-73
2023/02/02 09:41:40;;;;;;;6.07;1.42;;;6.60;99.90;;;;;;5103332;28;20551;-74
2023/02/02 09:44:46;;;;;;;4.20;1.27;;;6.60;99.90;;;;;;5113326;28;20048;-73
2023/02/02 09:47:24;;;;;;;5.20;1.40;;;6.60;99.90;;;;;;5114646;28;20043;-73
2023/02/02 09:50:18;;;;;;;4.20;1.38;;;6.70;99.90;;;;;;5114074;28;20047;-73
2023/02/02 09:52:56;;;;;;;2.33;1.13;;;6.60;99.90;;;;;;5115466;28;20038;-73
2023/02/02 09:55:33;;;;;;;3.13;1.25;;;6.70;99.90;;;;;;5114765;28;20108;-74
2023/02/02 09:58:25;;;;;;;3.58;1.40;;;6.70;99.90;;;;;;5114466;28;20050;-73
2023/02/02 10:01:03;;;;;;;2.90;1.25;;;6.70;99.90;;;;;;5105059;28;20444;-73
2023/02/02 10:03:47;;;;;;;5.60;1.20;;;6.70;99.90;;;;;;5098813;28;20076;-73
2023/02/02 10:06:28;;;;;;;3.05;1.40;;;6.90;99.90;;;;;;5094784;28;20573;-73
2023/02/02 10:09:10;;;;;;;4.07;1.35;;;6.70;99.90;;;;;;5093184;28;20051;-73
2023/02/02 10:11:41;;;;;;;4.20;1.45;;;6.80;99.90;;;;;;5093984;28;20040;-73
2023/02/02 10:14:18;;;;;;;11.80;2.45;;;6.90;99.90;;;;;;5100273;28;20504;-74
2023/02/02 10:16:47;;;;;;;4.63;1.70;;;7.00;99.90;;;;;;5093398;28;20051;-73
2023/02/02 10:19:14;;;;;;;4.60;2.10;;;6.90;99.90;;;;;;5076198;28;20040;-73
2023/02/02 10:21:53;;;;;;;5.60;1.60;;;7.00;99.90;;;;;;5100075;28;20023;-73
2023/02/02 10:24:23;;;;;;;7.38;1.88;;;6.90;99.90;;;;;;5111997;28;20032;-74
2023/02/02 10:26:57;;;;;;;5.32;1.75;;;6.90;99.90;;;;;;5113020;28;20491;-73
2023/02/02 10:29:23;;;;;;;5.07;1.73;;;7.10;99.90;;;;;;5096566;28;20048;-73
2023/02/02 10:32:07;;;;;;;4.05;2.00;;;7.00;99.90;;;;;;5113765;28;20513;-73
2023/02/02 10:34:43;;;;;;;5.35;1.60;;;7.10;99.90;;;;;;5113649;28;20043;-73
2023/02/02 10:37:08;;;;;;;5.30;1.90;;;7.10;99.90;;;;;;5113385;28;20043;-74
2023/02/02 10:40:14;;;;;;;4.03;1.67;;;7.10;99.90;;;;;;5112848;28;20501;-73
2023/02/02 10:45:40;;;;;;;7.68;1.90;;;7.20;99.90;;;;;;5113213;28;20039;-73
2023/02/02 10:48:21;;;;;;;6.85;2.08;;;7.20;99.90;;;;;;5113152;28;20068;-74
2023/02/02 10:50:50;;;;;;;7.85;1.80;;;7.10;99.90;;;;;;5113961;28;20039;-73
2023/02/02 10:53:16;;;;;;;4.07;1.20;;;7.30;99.90;;;;;;5112449;28;20039;-74
2023/02/02 10:55:48;;;;;;;4.75;1.40;;;7.20;99.90;;;;;;5121951;27;20031;-73
2023/02/02 10:58:25;;;;;;;5.43;1.38;;;7.20;99.90;;;;;;5112738;28;20040;-73
2023/02/02 11:00:53;;;;;;;7.55;1.55;;;7.10;99.90;;;;;;5112893;28;20042;-73
2023/02/02 11:03:23;;;;;;;5.10;1.50;;;7.20;99.90;;;;;;5114237;27;20040;-73
2023/02/02 11:08:58;;;;;;;5.00;1.70;;;7.30;99.90;;;;;;5112533;28;20474;-73
2023/02/02 11:11:38;;;;;;;7.95;2.20;;;7.30;99.90;;;;;;5112598;28;20216;-73
2023/02/02 11:14:07;;;;;;;7.18;1.90;;;7.30;99.90;;;;;;5113781;28;20086;-74
2023/02/02 11:16:37;;;;;;;4.70;1.45;;;7.20;99.90;;;;;;5113996;28;20039;-74
2023/02/02 11:19:21;;;;;;;5.35;1.40;;;7.10;99.90;;;;;;5112310;28;20510;-73
2023/02/02 11:21:49;;;;;;;7.57;2.22;;;7.10;99.90;;;;;;5112477;28;20047;-74
2023/02/02 11:24:26;;;;;;;4.85;1.77;;;7.10;99.90;;;;;;5112410;28;20122;-74
2023/02/02 11:27:07;;;;;;;8.85;2.30;;;7.30;99.90;;;;;;5112762;28;20043;-76
2023/02/02 11:29:38;;;;;;;8.35;2.00;;;7.20;99.90;;;;;;5113358;28;20040;-75
2023/02/02 11:32:28;;;;;;;3.33;1.52;;;7.30;99.90;;;;;;5113700;28;20040;-74
2023/02/02 11:35:14;;;;;;;7.53;1.98;;;7.20;99.90;;;;;;5112212;28;20046;-73
2023/02/02 11:37:58;;;;;;;7.57;1.90;;;7.30;99.90;;;;;;5111882;28;20056;-74
2023/02/02 11:40:34;;;;;;;9.02;2.03;;;7.20;99.90;;;;;;5111284;28;20039;-73
2023/02/02 11:43:04;;;;;;;9.50;1.88;;;7.20;99.90;;;;;;5113365;28;20035;-73
2023/02/02 11:45:37;;;;;;;6.45;2.03;;;7.20;99.90;;;;;;5112132;28;20040;-73
2023/02/02 11:48:16;;;;;;;5.85;2.10;;;7.20;99.90;;;;;;5113452;28;20055;-74
2023/02/02 11:51:01;;;;;;;6.38;2.25;;;7.20;99.90;;;;;;5111776;28;20502;-73
2023/02/02 11:53:39;;;;;;;6.10;2.30;;;7.30;99.90;;;;;;5112325;28;20079;-73
2023/02/02 11:56:16;;;;;;;7.68;1.63;;;7.30;99.90;;;;;;5112179;28;20105;-74
2023/02/02 11:58:54;;;;;;;7.18;1.65;;;7.20;99.90;;;;;;5103990;28;20081;-73
2023/02/02 12:01:34;;;;;;;8.32;1.80;;;7.20;99.90;;;;;;5091510;28;20612;-74
2023/02/02 12:04:15;;;;;;;5.25;2.42;;;7.20;99.90;;;;;;5091447;28;20502;-73
2023/02/02 12:06:41;;;;;;;5.72;1.85;;;7.30;99.90;;;;;;5091372;28;20142;-73
2023/02/02 12:09:21;;;;;;;3.88;1.45;;;7.30;99.90;;;;;;5102294;28;20119;-73
2023/02/02 12:12:14;;;;;;;6.35;1.45;;;7.20;99.90;;;;;;5091299;28;20044;-73
2023/02/02 12:15:12;;;;;;;6.47;1.70;;;7.30;99.90;;;;;;5092496;28;20040;-74
2023/02/02 12:17:44;;;;;;;4.10;1.63;;;7.20;99.90;;;;;;5088346;28;20495;-73
2023/02/02 12:20:25;;;;;;;8.38;1.80;;;7.20;99.90;;;;;;5073843;28;20089;-74
2023/02/02 12:23:08;;;;;;;9.88;2.08;;;7.30;99.90;;;;;;5091348;28;20040;-74
2023/02/02 12:25:43;;;;;;;6.80;2.58;;;7.10;99.90;;;;;;5091277;28;20491;-74
2023/02/02 12:28:26;;;;;;;5.57;1.75;;;7.20;99.90;;;;;;5090908;28;20066;-74
2023/02/02 12:31:15;;;;;;;3.03;1.00;;;7.10;99.90;;;;;;5091186;28;20044;-74
2023/02/02 12:34:08;;;;;;;8.77;1.15;;;7.30;99.90;;;;;;5092282;28;20460;-73
2023/02/02 12:36:44;;;;;;;5.25;1.85;;;7.30;99.90;;;;;;5090940;28;20453;-73
2023/02/02 12:39:37;;;;;;;4.57;1.30;;;7.30;99.90;;;;;;5090542;28;20047;-74
2023/02/02 12:42:14;;;;;;;3.78;1.25;;;7.20;99.90;;;;;;5090747;28;20193;-73
2023/02/02 12:44:49;;;;;;;6.88;2.20;;;7.20;99.90;;;;;;5073885;28;20132;-74
2023/02/02 12:47:26;;;;;;;6.18;2.10;;;7.20;99.90;;;;;;5090740;28;20048;-73
2023/02/02 12:50:09;;;;;;;2.25;1.63;;;7.20;99.90;;;;;;5091340;28;20065;-74
2023/02/02 12:53:12;;;;;;;6.23;2.17;;;7.20;99.90;;;;;;5090742;28;20052;-73
2023/02/02 12:55:55;;;;;;;10.07;3.53;;;7.20;99.90;;;;;;5090596;28;20032;-73
2023/02/02 12:58:42;;;;;;;8.75;2.75;;;7.20;99.90;;;;;;5090827;28;20043;-74
2023/02/02 13:01:26;;;;;;;7.72;2.03;;;7.20;99.90;;;;;;5102875;28;20061;-74
2023/02/02 13:03:59;;;;;;;7.15;1.90;;;7.30;99.90;;;;;;5105340;28;20093;-74
2023/02/02 13:06:55;;;;;;;7.03;1.80;;;7.30;99.90;;;;;;5112165;28;20043;-74
2023/02/02 13:09:41;;;;;;;8.55;2.50;;;7.30;99.90;;;;;;5111704;28;20071;-74
2023/02/02 13:12:11;;;;;;;8.13;2.53;;;7.20;99.90;;;;;;5110892;28;20044;-74
2023/02/02 13:14:49;;;;;;;5.20;1.75;;;7.40;99.90;;;;;;5107445;28;20510;-75
2023/02/02 13:17:23;;;;;;;5.57;1.88;;;7.40;99.90;;;;;;5099807;28;20093;-74
2023/02/02 13:19:52;;;;;;;5.80;1.55;;;7.30;99.90;;;;;;5098743;28;20459;-74
2023/02/02 13:22:24;;;;;;;7.03;1.70;;;7.30;99.90;;;;;;5097586;28;20398;-72
2023/02/02 13:24:54;;;;;;;6.63;1.67;;;7.30;99.90;;;;;;5096566;28;20071;-71